createdAt,value
2016-12-01T00:00:36.354Z,0
2016-12-01T00:10:49.875Z,0
2016-12-01T00:31:18.006Z,0
2016-12-01T00:41:32.818Z,0
2016-12-01T00:51:45.931Z,0
2016-12-01T01:01:59.914Z,0
2016-12-01T01:12:13.506Z,0
2016-12-01T01:22:26.926Z,0
2016-12-01T01:32:41.320Z,0
2016-12-01T01:42:54.641Z,0
2016-12-01T01:53:08.739Z,0
2016-12-01T02:03:22.798Z,0
2016-12-01T02:13:37.786Z,0
2016-12-01T02:23:52.030Z,0
2016-12-01T02:34:10.440Z,0
2016-12-01T02:44:20.270Z,0
2016-12-01T02:54:34.445Z,0
2016-12-01T03:04:48.820Z,0
2016-12-01T03:15:02.595Z,0
2016-12-01T03:25:16.095Z,0
2016-12-01T03:35:29.956Z,0
2016-12-01T03:45:44.413Z,0
2016-12-01T03:55:59.346Z,0
2016-12-01T04:06:13.625Z,0
2016-12-01T04:16:27.848Z,0
2016-12-01T04:26:41.300Z,0
2016-12-01T04:36:54.662Z,0
2016-12-01T04:47:09.339Z,0
2016-12-01T04:57:22.702Z,0
2016-12-01T05:07:36.435Z,0
2016-12-01T05:17:51.117Z,0
2016-12-01T05:28:04.661Z,0
2016-12-01T05:38:18.189Z,0
2016-12-01T05:48:32.864Z,0
2016-12-01T05:58:48.199Z,0
2016-12-01T06:09:01.823Z,0
2016-12-01T06:19:15.873Z,0
2016-12-01T06:29:29.396Z,0
2016-12-01T06:39:42.381Z,0
2016-12-01T06:49:57.237Z,4
2016-12-01T07:00:12.023Z,28
2016-12-01T07:10:26.010Z,88
2016-12-01T07:20:39.030Z,228
2016-12-01T07:30:52.701Z,412
2016-12-01T07:41:06.075Z,516
2016-12-01T07:51:20.197Z,888
2016-12-01T08:01:33.615Z,1928
2016-12-01T08:11:46.756Z,2000
2016-12-01T08:22:01.092Z,2084
2016-12-01T08:32:14.225Z,2528
2016-12-01T08:42:28.414Z,3716
2016-12-01T08:52:42.073Z,6680
2016-12-01T09:02:55.836Z,5116
2016-12-01T09:13:09.410Z,4184
2016-12-01T09:23:22.705Z,3760
2016-12-01T09:33:37.031Z,5500
2016-12-01T09:43:50.820Z,6444
2016-12-01T09:54:04.000Z,4692
2016-12-01T10:04:17.727Z,4652
2016-12-01T10:14:30.907Z,4656
2016-12-01T10:24:44.312Z,4868
2016-12-01T10:34:57.961Z,4932
2016-12-01T10:45:11.692Z,7120
2016-12-01T10:55:25.638Z,6576
2016-12-01T11:05:39.996Z,6956
2016-12-01T11:15:55.062Z,9508
2016-12-01T11:26:09.099Z,12712
2016-12-01T11:36:24.128Z,10888
2016-12-01T11:46:37.281Z,11776
2016-12-01T12:07:05.606Z,6844
2016-12-01T12:17:19.997Z,6164
2016-12-01T12:27:33.883Z,3956
2016-12-01T12:37:48.862Z,6344
2016-12-01T12:48:01.992Z,4632
2016-12-01T12:58:16.541Z,3512
2016-12-01T13:08:29.794Z,3588
2016-12-01T13:18:43.561Z,7776
2016-12-01T13:28:57.463Z,3948
2016-12-01T13:39:11.838Z,6452
2016-12-01T13:49:25.957Z,3848
2016-12-01T13:59:39.307Z,3224
2016-12-01T14:09:54.031Z,2880
2016-12-01T14:20:08.255Z,2120
2016-12-01T14:30:23.045Z,2608
2016-12-01T14:40:38.093Z,1696
2016-12-01T14:50:53.046Z,1316
2016-12-01T15:01:06.673Z,508
2016-12-01T15:11:20.352Z,320
2016-12-01T15:21:33.947Z,180
2016-12-01T15:31:47.743Z,52
2016-12-01T15:42:01.931Z,16
2016-12-01T15:52:16.081Z,4
2016-12-01T16:02:30.199Z,0
2016-12-01T16:12:43.335Z,0
2016-12-01T16:22:56.569Z,0
2016-12-01T16:33:10.593Z,0
2016-12-01T16:43:24.831Z,0
2016-12-01T16:53:38.244Z,0
2016-12-01T17:03:52.255Z,0
2016-12-01T17:14:06.481Z,0
2016-12-01T17:24:21.215Z,0
2016-12-01T17:34:35.175Z,0
2016-12-01T17:44:49.231Z,0
2016-12-01T17:55:03.597Z,0
2016-12-01T18:05:17.174Z,0
2016-12-01T18:15:30.841Z,0
2016-12-01T18:25:44.068Z,0
2016-12-01T18:35:58.240Z,0
2016-12-01T18:46:11.935Z,0
2016-12-01T18:56:26.866Z,0
2016-12-01T19:06:41.446Z,0
2016-12-01T19:16:55.882Z,0
2016-12-01T19:27:10.366Z,0
2016-12-01T19:37:23.508Z,0
2016-12-01T19:47:37.416Z,0
2016-12-01T19:57:51.449Z,0
2016-12-01T20:08:04.698Z,0
2016-12-01T20:18:19.405Z,0
2016-12-01T20:28:34.374Z,0
2016-12-01T20:49:03.179Z,0
2016-12-01T20:59:16.705Z,0
2016-12-01T21:09:31.178Z,0
2016-12-01T21:19:45.174Z,0
2016-12-01T21:29:59.356Z,0
2016-12-01T21:40:14.025Z,0
2016-12-01T21:50:28.478Z,0
2016-12-01T22:00:43.266Z,0
2016-12-01T22:10:58.166Z,0
2016-12-01T22:21:13.095Z,0
2016-12-01T22:31:27.633Z,0
2016-12-01T22:41:42.155Z,0
2016-12-01T22:51:56.725Z,0
2016-12-01T23:02:09.836Z,0
2016-12-01T23:12:23.312Z,0
2016-12-01T23:22:37.457Z,0
2016-12-01T23:32:52.048Z,0
2016-12-01T23:43:06.469Z,0
2016-12-01T23:53:20.934Z,0
